Time;durP1;ratioP1;P1;durP2;ratioP2;P2;SDS_P1;SDS_P2;PMS_P1;PMS_P2;Temp;Humidity;BMP_temperature;BMP_pressure;BME280_temperature;BME280_humidity;BME280_pressure;Samples;Min_cycle;Max_cycle;Signal;HPM_P1;HPM_P2
2022/06/23 00:01:33;;;;;;;2.10;1.20;;;;;;;23.52;56.98;99805.53;4407213;32;20163;-74
2022/06/23 00:04:01;;;;;;;3.12;1.20;;;;;;;23.45;58.11;99804.28;4407926;32;20085;-74
2022/06/23 00:06:41;;;;;;;1.70;1.35;;;;;;;23.45;58.49;99809.66;4407837;32;20159;-74
2022/06/23 00:09:31;;;;;;;3.17;1.48;;;;;;;23.46;59.25;99806.84;4407788;32;20500;-74
2022/06/23 00:11:59;;;;;;;3.85;1.40;;;;;;;23.35;59.79;99796.88;4407834;32;20465;-74
2022/06/23 00:14:28;;;;;;;2.67;1.30;;;;;;;23.23;61.10;99802.31;4393428;32;20112;-74
2022/06/23 00:16:55;;;;;;;4.55;1.67;;;;;;;23.22;61.55;99809.53;4407688;32;20516;-74
2022/06/23 00:19:22;;;;;;;2.40;1.50;;;;;;;23.17;61.88;99814.38;4407612;32;20097;-74
2022/06/23 00:21:53;;;;;;;2.35;1.60;;;;;;;23.03;62.12;99815.38;4407831;32;20090;-75
2022/06/23 00:24:24;;;;;;;9.15;1.92;;;;;;;22.96;63.31;99818.63;4407560;32;20111;-75
2022/06/23 00:26:53;;;;;;;3.83;1.48;;;;;;;22.88;63.97;99821.84;4407582;32;20090;-74
2022/06/23 00:29:22;;;;;;;3.03;1.58;;;;;;;22.79;65.20;99825.16;4407576;32;20173;-75
2022/06/23 00:32:04;;;;;;;4.40;1.50;;;;;;;22.71;65.81;99824.88;4407878;32;20147;-74
2022/06/23 00:34:38;;;;;;;2.35;1.65;;;;;;;22.67;67.30;99827.75;4407538;32;20078;-74
2022/06/23 00:37:17;;;;;;;2.40;1.75;;;;;;;22.67;66.03;99833.13;4407449;32;20102;-74
2022/06/23 00:39:53;;;;;;;1.65;1.37;;;;;;;22.71;66.85;99841.84;4407613;32;20770;-74
2022/06/23 00:42:25;;;;;;;2.58;1.42;;;;;;;22.69;66.49;99843.78;4407359;32;20084;-74
2022/06/23 00:44:53;;;;;;;2.92;1.55;;;;;;;22.79;65.70;99844.84;4407663;32;20112;-74
2022/06/23 00:47:26;;;;;;;6.80;1.80;;;;;;;22.68;65.95;99852.78;4407299;32;20451;-74
2022/06/23 00:50:11;;;;;;;8.10;1.87;;;;;;;22.66;67.00;99855.59;4407342;32;20128;-74
2022/06/23 00:52:52;;;;;;;3.65;1.83;;;;;;;22.61;67.47;99864.94;4407358;32;20482;-74
2022/06/23 00:55:39;;;;;;;3.05;1.40;;;;;;;22.52;67.18;99868.28;4407335;32;20500;-74
2022/06/23 00:58:19;;;;;;;1.58;1.30;;;;;;;22.50;62.10;99871.06;4393238;32;20106;-74
2022/06/23 01:00:53;;;;;;;11.10;1.50;;;;;;;22.54;58.98;99877.06;4407267;32;20144;-74
2022/06/23 01:03:27;;;;;;;6.35;1.77;;;;;;;22.58;58.57;99878.56;4407148;32;20089;-74
2022/06/23 01:06:07;;;;;;;1.85;1.40;;;;;;;22.47;62.76;99882.00;4407204;32;20085;-74
2022/06/23 01:08:58;;;;;;;3.33;1.50;;;;;;;22.41;62.69;99882.44;4407178;32;20089;-74
2022/06/23 01:11:36;;;;;;;3.37;1.00;;;;;;;22.31;59.80;99892.09;4407003;32;20105;-74
2022/06/23 01:14:26;;;;;;;1.37;1.27;;;;;;;22.23;58.27;99883.72;4408999;32;20090;-74
2022/06/23 01:17:11;;;;;;;9.13;1.55;;;;;;;22.23;57.84;99878.34;4409204;32;20543;-74
2022/06/23 01:20:00;;;;;;;8.15;1.40;;;;;;;22.14;55.33;99886.03;4409189;32;20899;-74
2022/06/23 01:22:52;;;;;;;1.10;0.93;;;;;;;22.22;52.45;99880.13;4409114;32;20442;-74
2022/06/23 01:25:34;;;;;;;1.27;1.10;;;;;;;22.24;53.43;99878.22;4394875;32;20155;-74
2022/06/23 01:28:05;;;;;;;2.60;1.17;;;;;;;22.12;56.81;99881.69;4409164;32;20078;-74
2022/06/23 01:30:40;;;;;;;5.28;1.40;;;;;;;22.04;58.32;99879.53;4409344;32;20505;-74
2022/06/23 01:33:07;;;;;;;2.70;1.23;;;;;;;21.80;62.17;99876.69;4409174;32;20436;-74
2022/06/23 01:35:44;;;;;;;1.20;1.10;;;;;;;21.57;67.06;99878.19;4409175;32;20441;-74
2022/06/23 01:38:26;;;;;;;1.15;1.00;;;;;;;21.39;70.63;99880.25;4409311;32;20446;-74
2022/06/23 01:40:58;;;;;;;1.95;1.35;;;;;;;21.22;72.83;99883.12;4409234;32;20098;-74
2022/06/23 01:43:42;;;;;;;1.83;1.23;;;;;;;21.08;70.06;99893.87;4409316;32;20167;-74
2022/06/23 01:46:17;;;;;;;1.20;1.10;;;;;;;21.07;73.92;99894.84;4409276;32;20128;-74
2022/06/23 01:48:52;;;;;;;1.52;1.42;;;;;;;21.00;73.06;99897.88;4409153;32;20104;-74
2022/06/23 01:51:52;;;;;;;2.72;1.40;;;;;;;20.96;75.13;99895.50;4409147;32;20311;-74
2022/06/23 01:54:19;;;;;;;3.35;1.25;;;;;;;20.71;76.58;99901.53;4400155;32;20576;-74
2022/06/23 01:56:53;;;;;;;7.43;1.33;;;;;;;20.46;80.95;99878.00;4408914;32;20159;-74
2022/06/23 01:59:42;;;;;;;1.17;1.12;;;;;;;20.40;81.69;99873.06;4409055;32;20155;-74
2022/06/23 02:02:24;;;;;;;1.48;1.37;;;;;;;20.36;84.12;99879.56;4408890;32;20106;-74
2022/06/23 02:05:11;;;;;;;2.25;1.37;;;;;;;20.09;87.02;99888.25;4409008;32;20110;-74
2022/06/23 02:07:39;;;;;;;6.70;1.48;;;;;;;19.91;90.54;99890.19;4408972;32;20438;-74
2022/06/23 02:10:21;;;;;;;8.55;1.77;;;;;;;19.82;91.57;99888.06;4408836;32;20098;-74
2022/06/23 02:12:57;;;;;;;3.33;1.60;;;;;;;19.76;89.49;99888.44;4408873;32;20101;-74
2022/06/23 02:15:24;;;;;;;4.93;1.17;;;;;;;19.70;87.76;99886.09;4408822;32;20159;-74
2022/06/23 02:18:17;;;;;;;1.60;1.35;;;;;;;19.50;87.81;99888.06;4409077;32;20081;-74
2022/06/23 02:21:00;;;;;;;3.28;1.27;;;;;;;19.46;91.16;99886.50;4408696;32;20135;-74
2022/06/23 02:23:43;;;;;;;3.15;1.40;;;;;;;19.45;88.56;99881.25;4408224;32;20141;-74
2022/06/23 02:26:10;;;;;;;3.37;1.25;;;;;;;19.39;88.62;99892.28;4408790;32;20167;-74
2022/06/23 02:28:46;;;;;;;5.93;1.45;;;;;;;19.40;89.91;99894.00;4408609;32;20176;-74
2022/06/23 02:31:26;;;;;;;1.60;1.50;;;;;;;19.37;89.14;99892.38;4408565;32;20148;-74
2022/06/23 02:34:05;;;;;;;2.72;1.45;;;;;;;19.38;91.80;99891.44;4408656;32;20161;-74
2022/06/23 02:36:52;;;;;;;4.65;1.45;;;;;;;19.36;90.32;99895.97;4408791;32;20093;-74
2022/06/23 02:39:44;;;;;;;2.60;1.10;;;;;;;19.49;93.16;99885.47;4408367;32;20142;-74
2022/06/23 02:42:36;;;;;;;1.35;1.25;;;;;;;19.48;91.42;99897.97;4408382;32;20123;-74
2022/06/23 02:45:40;;;;;;;2.03;1.23;;;;;;;19.49;92.28;99902.37;4408394;32;20258;-74
2022/06/23 02:48:17;;;;;;;4.62;1.40;;;;;;;19.42;87.25;99921.50;4408432;32;20128;-74
2022/06/23 02:50:51;;;;;;;2.03;1.30;;;;;;;19.75;84.94;99933.03;4408445;32;20135;-74
2022/06/23 02:53:56;;;;;;;1.65;1.30;;;;;;;19.75;86.61;99916.97;4408454;32;20638;-74
2022/06/23 02:56:32;;;;;;;3.05;1.42;;;;;;;19.72;87.99;99918.97;4345035;32;20499;-74
2022/06/23 02:59:11;;;;;;;1.60;1.50;;;;;;;19.74;86.30;99927.75;4401101;32;20520;-74
2022/06/23 03:01:49;;;;;;;6.00;1.27;;;;;;;19.74;89.09;99933.94;4408310;32;20145;-74
2022/06/23 03:04:35;;;;;;;1.37;1.30;;;;;;;19.66;86.72;99946.88;4408549;32;20077;-74
2022/06/23 03:07:32;;;;;;;1.30;1.30;;;;;;;19.65;84.79;99939.84;4408351;32;20176;-74
2022/06/23 03:10:12;;;;;;;3.40;1.63;;;;;;;19.66;82.78;99943.34;4408405;32;20148;-74
2022/06/23 03:12:54;;;;;;;3.45;1.62;;;;;;;19.73;83.81;99945.59;4408333;32;20153;-74
2022/06/23 03:15:35;;;;;;;4.20;1.60;;;;;;;19.73;81.50;99942.06;4407469;32;20093;-74
2022/06/23 03:18:09;;;;;;;6.62;1.62;;;;;;;19.74;83.33;99943.78;4408378;32;20117;-74
2022/06/23 03:20:48;;;;;;;2.28;1.60;;;;;;;19.80;83.85;99946.97;4408353;32;20418;-74
2022/06/23 03:23:19;;;;;;;3.72;1.45;;;;;;;19.81;84.88;99953.16;4408311;32;20161;-74
2022/06/23 03:26:25;;;;;;;4.62;1.10;;;;;;;19.79;83.95;99955.09;4408206;32;20120;-74
2022/06/23 03:29:15;;;;;;;1.90;1.80;;;;;;;19.81;83.36;99959.38;4398635;32;20141;-74
2022/06/23 03:32:01;;;;;;;1.45;1.30;;;;;;;19.98;82.80;99962.91;4408176;32;20093;-74
2022/06/23 03:34:38;;;;;;;3.10;1.15;;;;;;;20.04;81.90;99962.56;4407636;32;20135;-74
2022/06/23 03:37:13;;;;;;;2.28;1.67;;;;;;;20.15;79.23;99964.63;4408198;32;20073;-74
2022/06/23 03:42:59;;;;;;;3.42;1.73;;;;;;;20.33;78.99;99963.53;4376403;32;20102;-74
2022/06/23 03:45:35;;;;;;;1.52;1.30;;;;;;;20.44;78.68;99962.91;4393107;32;20517;-74
2022/06/23 03:48:28;;;;;;;7.95;2.12;;;;;;;20.52;80.60;99963.31;4393572;32;20147;-76
2022/06/23 03:51:12;;;;;;;1.35;1.20;;;;;;;20.60;79.07;99976.25;4401313;32;20148;-76
2022/06/23 03:53:47;;;;;;;1.50;1.40;;;;;;;20.56;78.09;99982.75;4392703;32;20176;-76
2022/06/23 03:56:19;;;;;;;3.50;1.20;;;;;;;20.49;77.59;99977.75;4392525;32;20086;-76
2022/06/23 03:58:54;;;;;;;3.95;1.33;;;;;;;20.63;75.16;99986.78;4390904;32;20143;-76
2022/06/23 04:01:31;;;;;;;10.63;1.40;;;;;;;20.71;73.79;99989.88;4392461;32;20494;-76
2022/06/23 04:04:03;;;;;;;;;;;;;;;20.86;72.79;99988.94;4408145;32;20170;-76
2022/06/23 04:06:33;;;;;;;4.37;1.55;;;;;;;20.98;71.86;99990.84;4407821;32;20269;-76
2022/06/23 04:09:01;;;;;;;1.52;1.30;;;;;;;21.11;71.49;99995.47;4397485;32;20086;-76
2022/06/23 04:11:43;;;;;;;1.85;1.58;;;;;;;21.27;70.17;99996.22;4392339;32;20102;-76
2022/06/23 04:14:26;;;;;;;3.17;1.40;;;;;;;21.35;70.53;99996.66;4394497;32;20105;-76
2022/06/23 04:17:17;;;;;;;3.62;1.20;;;;;;;21.45;68.59;100005.84;4401448;32;20123;-76
2022/06/23 04:19:58;;;;;;;2.17;1.55;;;;;;;21.68;65.91;99998.16;4384624;32;20119;-76
2022/06/23 04:22:41;;;;;;;3.08;1.35;;;;;;;21.86;66.24;100001.47;4408118;32;20174;-76
2022/06/23 04:25:14;;;;;;;4.12;1.00;;;;;;;22.03;65.22;100011.13;4408536;32;20081;-76
2022/06/23 04:27:54;;;;;;;2.45;1.27;;;;;;;22.23;63.17;100012.53;4408457;32;20120;-76
2022/06/23 04:30:32;;;;;;;2.78;1.25;;;;;;;22.47;60.34;100015.38;4408205;32;20077;-77
2022/06/23 04:33:04;;;;;;;4.00;1.45;;;;;;;22.75;58.50;100020.59;4408245;32;20136;-76
2022/06/23 04:35:39;;;;;;;6.18;1.48;;;;;;;22.86;58.21;100020.75;4408293;32;20093;-76
2022/06/23 04:38:19;;;;;;;2.47;1.45;;;;;;;22.94;59.86;100025.62;4408356;32;20135;-75
2022/06/23 04:40:50;;;;;;;7.00;1.37;;;;;;;22.93;61.36;100023.03;4408214;32;20196;-75
2022/06/23 04:43:29;;;;;;;1.58;1.30;;;;;;;22.91;60.92;100026.66;4397752;32;20094;-75
2022/06/23 04:46:11;;;;;;;1.23;1.12;;;;;;;22.77;61.01;100032.12;4404721;32;20120;-76
2022/06/23 04:48:38;;;;;;;1.52;1.42;;;;;;;22.74;60.69;100044.88;4403752;32;20201;-77
2022/06/23 04:51:24;;;;;;;3.33;1.48;;;;;;;22.84;59.10;100046.00;4403449;32;20094;-74
2022/06/23 04:54:10;;;;;;;9.32;1.52;;;;;;;22.87;58.49;100041.28;4394732;32;20160;-75
2022/06/23 04:56:37;;;;;;;4.75;1.58;;;;;;;22.79;57.58;100054.37;4394880;32;20093;-75
2022/06/23 04:59:14;;;;;;;2.87;1.45;;;;;;;23.04;57.02;100053.59;4394661;32;20155;-75
2022/06/23 05:01:43;;;;;;;3.00;1.45;;;;;;;23.16;55.91;100059.06;4401522;32;20086;-75
2022/06/23 05:04:45;;;;;;;4.20;1.42;;;;;;;23.12;56.93;100051.22;4407540;32;20460;-75
2022/06/23 05:07:36;;;;;;;1.35;1.10;;;;;;;23.21;56.37;100057.78;4400008;32;20475;-75
2022/06/23 05:10:06;;;;;;;1.35;1.27;;;;;;;23.14;55.36;100061.84;4406967;32;20155;-75
2022/06/23 05:12:39;;;;;;;1.58;1.20;;;;;;;23.17;54.17;100069.69;4408914;32;20116;-75
2022/06/23 05:15:09;;;;;;;2.47;1.40;;;;;;;23.11;53.21;100065.62;4406408;32;20382;-75
2022/06/23 05:17:45;;;;;;;3.28;1.50;;;;;;;23.24;52.42;100076.38;4405180;32;20094;-75
2022/06/23 05:20:20;;;;;;;4.87;1.27;;;;;;;23.38;52.07;100070.91;4394059;32;20499;-75
2022/06/23 05:22:48;;;;;;;1.62;1.50;;;;;;;23.41;52.19;100071.66;4397691;32;20098;-75
2022/06/23 05:25:15;;;;;;;5.22;1.40;;;;;;;23.47;51.37;100074.78;4396159;32;20098;-75
2022/06/23 05:27:46;;;;;;;5.47;1.55;;;;;;;23.60;51.24;100080.13;4397211;32;20106;-75
2022/06/23 05:30:35;;;;;;;1.70;1.27;;;;;;;23.69;50.75;100086.75;4393822;32;20093;-75
2022/06/23 05:33:14;;;;;;;14.57;1.73;;;;;;;23.74;49.11;100089.94;4396994;32;20123;-75
2022/06/23 05:35:48;;;;;;;1.35;1.17;;;;;;;23.87;48.99;100096.19;4402258;32;20094;-77
2022/06/23 05:38:24;;;;;;;12.15;1.40;;;;;;;23.90;47.69;100087.87;4394673;32;20407;-77
2022/06/23 05:40:56;;;;;;;1.98;1.30;;;;;;;23.99;47.42;100089.03;4395138;32;20137;-77
2022/06/23 05:43:25;;;;;;;1.95;1.12;;;;;;;24.07;47.49;100100.12;4408827;32;20085;-77
2022/06/23 05:45:56;;;;;;;3.42;1.40;;;;;;;24.00;47.58;100094.34;4396267;32;20261;-77
2022/06/23 05:48:35;;;;;;;2.65;1.40;;;;;;;24.03;47.30;100104.03;4393639;32;20163;-77
2022/06/23 05:51:20;;;;;;;1.62;1.27;;;;;;;23.97;46.67;100108.00;4394188;32;20106;-77
2022/06/23 05:53:53;;;;;;;4.93;1.02;;;;;;;24.03;46.84;100102.19;4394469;32;20521;-77
2022/06/23 05:56:27;;;;;;;4.62;1.30;;;;;;;24.17;46.90;100113.75;4393629;32;20113;-77
2022/06/23 05:59:07;;;;;;;1.27;1.23;;;;;;;24.26;46.94;100118.50;4392768;32;20145;-77
2022/06/23 06:01:47;;;;;;;3.25;1.70;;;;;;;24.10;47.03;100113.38;4393346;32;20094;-76
2022/06/23 06:04:21;;;;;;;3.33;1.20;;;;;;;24.11;48.12;100111.53;4393219;32;20082;-76
2022/06/23 06:06:49;;;;;;;3.10;1.45;;;;;;;24.11;46.77;100114.22;4393525;32;20716;-76
2022/06/23 06:09:35;;;;;;;1.83;1.17;;;;;;;24.14;45.78;100114.87;4393392;32;20164;-76
2022/06/23 06:12:06;;;;;;;3.03;1.40;;;;;;;24.07;45.83;100116.28;4393108;32;20573;-76
2022/06/23 06:14:40;;;;;;;2.83;1.40;;;;;;;24.36;45.53;100111.47;4401287;32;20116;-76
2022/06/23 06:17:25;;;;;;;3.47;1.23;;;;;;;24.29;45.85;100119.13;4408492;32;20111;-77
2022/06/23 06:19:57;;;;;;;11.38;1.83;;;;;;;24.43;45.54;100115.44;4408227;32;20082;-77
2022/06/23 06:22:47;;;;;;;2.92;1.40;;;;;;;24.45;44.88;100120.72;4408415;32;20124;-77
2022/06/23 06:25:26;;;;;;;8.85;1.40;;;;;;;24.62;43.99;100124.84;4408329;32;20113;-77
2022/06/23 06:27:55;;;;;;;9.73;1.98;;;;;;;24.83;43.76;100128.63;4408140;32;20087;-78
2022/06/23 06:30:29;;;;;;;9.38;1.60;;;;;;;24.85;44.55;100125.84;4408092;32;20100;-77
2022/06/23 06:32:57;;;;;;;1.20;1.17;;;;;;;25.00;44.10;100122.81;4400694;32;20073;-77
2022/06/23 06:35:37;;;;;;;4.25;1.50;;;;;;;24.93;44.02;100124.28;4394751;32;20094;-77
2022/06/23 06:38:13;;;;;;;2.72;1.58;;;;;;;25.18;43.02;100133.22;4403993;32;20442;-77
2022/06/23 06:40:46;;;;;;;1.40;1.30;;;;;;;25.31;42.66;100135.84;4400419;32;20518;-77
2022/06/23 06:43:18;;;;;;;2.72;1.30;;;;;;;25.60;43.94;100138.97;4407486;32;20107;-77
2022/06/23 06:45:46;;;;;;;3.28;1.02;;;;;;;25.82;42.55;100138.16;4404815;32;20106;-77
2022/06/23 06:48:27;;;;;;;1.85;1.30;;;;;;;25.61;41.89;100136.13;4408110;32;20178;-77
2022/06/23 06:51:06;;;;;;;7.75;2.08;;;;;;;25.56;42.62;100141.03;4408026;32;20494;-77
2022/06/23 06:53:41;;;;;;;5.47;1.40;;;;;;;25.77;41.67;100137.62;4408793;32;20108;-77
2022/06/23 06:56:13;;;;;;;1.77;1.10;;;;;;;25.99;42.38;100141.22;4408675;32;20109;-77
2022/06/23 06:58:49;;;;;;;2.30;1.52;;;;;;;26.04;41.68;100143.53;4408634;32;20538;-77
2022/06/23 07:01:21;;;;;;;1.98;1.10;;;;;;;26.15;41.92;100148.09;4389280;32;20159;-77
2022/06/23 07:03:51;;;;;;;3.60;1.30;;;;;;;26.19;41.78;100150.44;4400527;32;20203;-77
2022/06/23 07:06:49;;;;;;;1.42;1.27;;;;;;;26.33;41.41;100153.88;4393187;32;20162;-77
2022/06/23 07:09:25;;;;;;;1.40;1.30;;;;;;;26.43;40.86;100154.81;4404956;32;20866;-77
2022/06/23 07:12:03;;;;;;;1.25;1.23;;;;;;;26.41;41.11;100146.84;4388046;32;20101;-77
2022/06/23 07:14:42;;;;;;;3.05;1.20;;;;;;;26.58;40.78;100153.59;4389991;32;20086;-77
2022/06/23 07:17:34;;;;;;;3.25;1.20;;;;;;;27.03;40.88;100163.38;4408636;32;20155;-77
2022/06/23 07:20:11;;;;;;;1.62;1.10;;;;;;;27.43;39.66;100166.31;4407135;32;20157;-77
2022/06/23 07:22:46;;;;;;;2.78;1.73;;;;;;;27.53;38.62;100158.28;4393514;32;20148;-77
2022/06/23 07:25:29;;;;;;;1.20;1.10;;;;;;;27.74;37.64;100159.13;4393572;32;20120;-77
2022/06/23 07:28:06;;;;;;;7.03;1.48;;;;;;;27.88;37.20;100158.78;4393669;32;20168;-77
2022/06/23 07:30:42;;;;;;;4.87;1.12;;;;;;;27.62;37.74;100161.00;4396751;32;20094;-77
2022/06/23 07:33:22;;;;;;;;;;;;;;;27.84;38.50;100162.72;4399250;32;20918;-77
2022/06/23 07:36:11;;;;;;;4.72;1.20;;;;;;;27.85;37.43;100178.00;4397432;32;19981;-77
2022/06/23 07:39:18;;;;;;;6.65;1.50;;;;;;;27.69;37.26;100172.19;4395074;32;20153;-77
2022/06/23 07:41:53;;;;;;;3.83;1.23;;;;;;;27.45;37.32;100174.28;4335109;32;20906;-77
2022/06/23 07:44:23;;;;;;;4.00;1.20;;;;;;;27.44;38.02;100175.28;4391190;32;20117;-77
2022/06/23 07:46:51;;;;;;;3.25;1.10;;;;;;;27.44;37.63;100178.00;4405427;32;20108;-77
2022/06/23 07:49:25;;;;;;;2.30;1.20;;;;;;;27.51;37.54;100180.03;4399087;32;20090;-77
2022/06/23 07:51:55;;;;;;;3.40;1.17;;;;;;;27.57;36.81;100174.09;4396003;32;20154;-77
2022/06/23 07:54:23;;;;;;;1.87;0.98;;;;;;;27.62;37.40;100188.09;4397855;32;20132;-77
2022/06/23 07:56:52;;;;;;;3.87;1.20;;;;;;;27.69;36.73;100182.16;4385887;32;20117;-77
2022/06/23 07:59:28;;;;;;;2.92;1.20;;;;;;;27.71;36.49;100185.59;4396234;32;20110;-76
2022/06/23 08:02:06;;;;;;;1.52;1.02;;;;;;;27.64;36.66;100186.13;4398944;32;20129;-76
2022/06/23 08:04:44;;;;;;;1.37;1.27;;;;;;;27.80;36.78;100191.06;4389066;32;20599;-77
2022/06/23 08:07:12;;;;;;;3.60;1.20;;;;;;;27.94;36.31;100175.47;4402927;32;21057;-78
2022/06/23 08:09:51;;;;;;;1.37;1.20;;;;;;;27.73;35.93;100183.59;4404589;32;20109;-78
2022/06/23 08:18:13;;;;;;;2.12;1.15;;;;;;;27.80;34.82;100184.81;4398221;32;20182;-78
2022/06/23 08:20:53;;;;;;;2.22;1.10;;;;;;;27.53;35.45;100183.47;4393479;32;20143;-79
2022/06/23 08:23:23;;;;;;;6.18;1.58;;;;;;;27.94;36.37;100180.91;4391525;32;21037;-79
2022/06/23 08:25:52;;;;;;;4.15;1.50;;;;;;;28.13;35.16;100181.00;4397083;32;20192;-80
2022/06/23 08:28:20;;;;;;;2.53;1.23;;;;;;;28.20;35.38;100186.69;4396207;32;20093;-79
2022/06/23 08:30:55;;;;;;;8.05;1.23;;;;;;;27.98;34.09;100180.47;4398396;32;20133;-79
2022/06/23 08:33:23;;;;;;;1.30;1.00;;;;;;;27.75;35.34;100179.81;4404367;32;20502;-79
2022/06/23 08:35:53;;;;;;;1.23;1.05;;;;;;;27.89;34.91;100173.19;4405482;32;20170;-79
2022/06/23 08:38:27;;;;;;;5.82;1.08;;;;;;;28.18;35.38;100173.31;4404323;32;20228;-78
2022/06/23 08:41:29;;;;;;;3.50;1.35;;;;;;;28.26;34.65;100167.19;4402074;32;20086;-79
2022/06/23 08:44:45;;;;;;;4.18;1.10;;;;;;;28.41;35.08;100179.44;4403592;32;20455;-79
2022/06/23 08:47:28;;;;;;;6.03;1.48;;;;;;;28.64;33.80;100174.62;4400996;32;20836;-79
2022/06/23 08:50:05;;;;;;;4.25;1.00;;;;;;;28.68;33.86;100172.50;4401471;32;20078;-78
2022/06/23 08:52:32;;;;;;;1.80;1.08;;;;;;;28.85;33.71;100166.37;4398524;32;20160;-79
2022/06/23 08:55:08;;;;;;;2.95;1.10;;;;;;;28.96;32.90;100174.38;4404054;32;20098;-78
2022/06/23 08:57:53;;;;;;;1.83;1.10;;;;;;;29.01;33.52;100177.56;4404970;32;20127;-79
2022/06/23 09:00:33;;;;;;;1.10;1.00;;;;;;;29.64;32.53;100178.97;4404643;32;20157;-79
2022/06/23 09:03:08;;;;;;;1.37;0.98;;;;;;;28.51;33.94;100174.88;4405868;32;20120;-79
2022/06/23 09:05:36;;;;;;;5.32;1.10;;;;;;;28.25;32.96;100168.22;4404882;32;20122;-78
2022/06/23 09:08:37;;;;;;;1.83;1.27;;;;;;;28.21;33.60;100173.03;4401346;32;20525;-78
2022/06/23 09:12:16;;;;;;;1.75;1.10;;;;;;;28.45;34.15;100170.03;4402254;32;20189;-79
2022/06/23 09:15:12;;;;;;;1.85;1.33;;;;;;;28.83;34.57;100166.53;4339500;32;20124;-78
2022/06/23 09:18:01;;;;;;;4.30;1.10;;;;;;;29.13;34.74;100174.72;4326309;32;20171;-78
2022/06/23 09:20:49;;;;;;;3.75;1.10;;;;;;;29.40;33.30;100173.97;4395428;32;20110;-79
2022/06/23 09:23:58;;;;;;;4.00;1.00;;;;;;;29.52;33.30;100172.81;4397916;32;20082;-79
2022/06/23 09:26:41;;;;;;;2.22;1.27;;;;;;;29.72;32.71;100170.97;4392376;32;20074;-79
2022/06/23 09:29:22;;;;;;;3.90;1.15;;;;;;;29.86;33.25;100167.78;4401775;32;20094;-79
2022/06/23 09:31:59;;;;;;;18.60;1.62;;;;;;;30.12;32.16;100167.97;4406690;32;20205;-79
2022/06/23 09:34:51;;;;;;;4.43;1.37;;;;;;;30.16;31.82;100163.09;4393552;32;20136;-78
2022/06/23 09:37:39;;;;;;;8.45;1.30;;;;;;;30.01;31.48;100163.56;4407538;32;20085;-78
2022/06/23 09:40:52;;;;;;;4.95;1.12;;;;;;;29.77;31.07;100163.22;4403218;32;21003;-78
2022/06/23 09:44:01;;;;;;;7.45;1.20;;;;;;;30.08;32.77;100171.16;4399878;32;20101;-78
2022/06/23 09:46:44;;;;;;;2.60;1.42;;;;;;;30.09;30.77;100172.84;4393851;32;20086;-78
2022/06/23 09:49:25;;;;;;;3.53;1.10;;;;;;;29.66;30.92;100172.41;4393675;32;20085;-78
2022/06/23 09:52:12;;;;;;;2.55;1.20;;;;;;;30.07;31.18;100164.84;4393554;32;20165;-78
2022/06/23 09:54:53;;;;;;;1.67;0.98;;;;;;;30.28;30.77;100158.34;4393484;32;20541;-78
2022/06/23 09:57:48;;;;;;;14.20;1.45;;;;;;;30.60;30.18;100161.47;4393715;32;20485;-78
2022/06/23 10:00:42;;;;;;;3.83;1.23;;;;;;;30.08;30.85;100152.13;4393738;32;20078;-78
2022/06/23 10:03:09;;;;;;;2.35;1.70;;;;;;;30.27;30.50;100156.63;4383392;32;20470;-78
2022/06/23 10:05:58;;;;;;;3.28;1.10;;;;;;;30.55;30.84;100155.59;4393788;32;20106;-77
2022/06/23 10:09:10;;;;;;;2.60;0.90;;;;;;;31.17;29.58;100158.50;4392996;32;20135;-78
2022/06/23 10:12:07;;;;;;;1.17;1.08;;;;;;;31.50;29.34;100162.34;4391995;32;20148;-78
2022/06/23 10:14:43;;;;;;;5.93;1.08;;;;;;;31.49;28.53;100155.22;4393080;32;20102;-78
2022/06/23 10:17:25;;;;;;;2.15;1.20;;;;;;;31.43;29.58;100158.56;4392991;32;20093;-78
2022/06/23 10:19:59;;;;;;;4.75;1.30;;;;;;;31.86;28.42;100162.25;4392560;32;20136;-79
2022/06/23 10:23:00;;;;;;;1.65;1.02;;;;;;;32.06;27.87;100161.03;4392418;32;20074;-80
2022/06/23 10:25:58;;;;;;;7.62;1.45;;;;;;;32.33;27.94;100159.97;4392880;32;20086;-78
2022/06/23 10:28:58;;;;;;;11.50;1.23;;;;;;;32.27;27.71;100159.78;4393100;32;20102;-81
2022/06/23 10:31:46;;;;;;;4.10;1.15;;;;;;;32.42;27.21;100160.03;4393133;32;20090;-82
2022/06/23 10:34:37;;;;;;;2.12;1.60;;;;;;;32.69;26.60;100159.78;4379144;32;20095;-81
2022/06/23 10:37:16;;;;;;;4.05;2.90;;;;;;;33.07;26.71;100143.81;4365401;32;21075;-82
2022/06/23 10:40:20;;;;;;;2.30;0.90;;;;;;;32.84;26.91;100146.34;4393615;32;20179;-80
2022/06/23 10:43:34;;;;;;;1.40;1.20;;;;;;;32.60;26.35;100155.31;4408131;32;20090;-80
2022/06/23 10:46:09;;;;;;;3.92;1.20;;;;;;;32.47;27.23;100153.06;4408084;32;20098;-87
2022/06/23 10:48:53;;;;;;;11.27;2.08;;;;;;;33.53;26.83;100157.84;4408736;32;20127;-84
2022/06/23 10:51:38;;;;;;;1.87;1.10;;;;;;;33.93;26.56;100146.00;4407187;32;20106;-82
2022/06/23 10:54:14;;;;;;;3.28;1.17;;;;;;;34.33;25.36;100152.34;4404984;32;20078;-80
2022/06/23 10:57:19;;;;;;;4.15;1.20;;;;;;;34.63;25.72;100147.09;4407224;32;20492;-83
2022/06/23 10:59:52;;;;;;;1.12;0.90;;;;;;;34.53;24.98;100141.87;4406137;32;20124;-80
2022/06/23 11:02:28;;;;;;;1.40;0.90;;;;;;;35.09;23.96;100142.56;4407144;32;20110;-85
2022/06/23 11:05:26;;;;;;;4.43;0.85;;;;;;;35.10;23.75;100144.25;4407213;32;20630;-80
2022/06/23 11:08:12;;;;;;;7.53;1.10;;;;;;;35.21;23.25;100145.69;4407011;32;20101;-83
2022/06/23 11:10:59;;;;;;;1.83;0.85;;;;;;;32.75;25.20;100137.25;4406161;32;20117;-82
2022/06/23 11:13:42;;;;;;;4.20;1.02;;;;;;;32.33;26.00;100138.16;4408018;32;20146;-83
2022/06/23 11:16:35;;;;;;;3.30;1.65;;;;;;;32.75;25.76;100128.22;4414336;32;20078;-83
2022/06/23 11:19:29;;;;;;;9.60;1.55;;;;;;;33.70;25.52;100126.72;4412242;32;20436;-82
2022/06/23 11:22:38;;;;;;;2.35;1.20;;;;;;;34.40;24.99;100128.72;4409989;32;20104;-80
2022/06/23 11:25:18;;;;;;;2.30;0.90;;;;;;;35.12;24.72;100131.19;4384811;32;20557;-82
2022/06/23 11:28:04;;;;;;;1.25;0.90;;;;;;;35.93;23.37;100136.94;4416577;32;20116;-81
2022/06/23 11:31:01;;;;;;;2.62;1.23;;;;;;;36.36;22.07;100127.03;4393563;32;20774;-86
2022/06/23 11:33:38;;;;;;;1.62;0.80;;;;;;;36.02;22.28;100133.13;4392917;32;20448;-87
2022/06/23 11:36:26;;;;;;;2.25;1.17;;;;;;;37.17;21.09;100137.84;4408339;32;20093;-85
2022/06/23 11:39:25;;;;;;;0.93;0.85;;;;;;;38.91;20.46;100118.63;4408043;32;20081;-81
2022/06/23 11:42:23;;;;;;;2.95;1.35;;;;;;;39.96;20.33;100130.66;4405765;32;20149;-84
2022/06/23 11:44:58;;;;;;;4.82;1.30;;;;;;;41.30;19.42;100124.25;4410372;32;20568;-85
2022/06/23 11:47:40;;;;;;;5.55;1.10;;;;;;;42.00;19.08;100125.97;4411949;32;20131;-80
2022/06/23 11:50:43;;;;;;;3.87;0.85;;;;;;;42.09;18.45;100127.34;4386802;32;20089;-79
2022/06/23 11:53:55;;;;;;;5.15;1.02;;;;;;;42.23;17.58;100131.66;4363817;32;20157;-80
2022/06/23 11:56:56;;;;;;;4.30;1.20;;;;;;;42.80;17.32;100125.81;4371539;32;20106;-77
2022/06/23 12:00:01;;;;;;;2.45;1.10;;;;;;;43.19;16.98;100120.75;4417806;32;20134;-78
2022/06/23 12:03:30;;;;;;;4.15;1.30;;;;;;;43.14;15.92;100120.62;4423940;32;20089;-77
2022/06/23 12:06:32;;;;;;;2.45;0.95;;;;;;;43.53;16.61;100121.03;4420644;32;20085;-80
2022/06/23 12:09:24;;;;;;;3.80;1.00;;;;;;;43.52;16.05;100122.97;4413721;32;20523;-78
2022/06/23 12:11:58;;;;;;;1.15;1.05;;;;;;;44.37;16.04;100129.88;4404067;32;229536;-79
2022/06/23 12:14:26;;;;;;;4.22;1.30;;;;;;;44.46;15.63;100124.78;4412094;32;20170;-81
2022/06/23 12:17:10;;;;;;;5.45;1.15;;;;;;;44.40;15.29;100118.28;4412160;32;20155;-80
2022/06/23 12:19:53;;;;;;;2.77;1.17;;;;;;;45.50;15.69;100130.03;4411842;32;20128;-83
2022/06/23 12:22:25;;;;;;;0.93;0.90;;;;;;;44.26;14.97;100126.03;4411423;32;20102;-82
2022/06/23 12:25:12;;;;;;;0.90;0.90;;;;;;;43.12;16.06;100117.25;4411482;32;20086;-81
2022/06/23 12:28:06;;;;;;;2.70;0.95;;;;;;;42.76;16.50;100110.75;4410507;32;20094;-81
2022/06/23 12:30:45;;;;;;;2.90;1.05;;;;;;;41.71;16.84;100111.78;4412966;32;20121;-78
2022/06/23 12:33:21;;;;;;;1.15;0.90;;;;;;;41.08;17.45;100107.22;4412677;32;20178;-81
2022/06/23 12:35:59;;;;;;;1.27;1.00;;;;;;;40.56;17.27;100109.19;4409282;32;20078;-78
2022/06/23 12:38:53;;;;;;;3.50;0.90;;;;;;;41.71;17.18;100108.16;4406812;32;20761;-78
2022/06/23 12:41:30;;;;;;;2.25;1.00;;;;;;;42.76;16.83;100115.41;4401547;32;20133;-81
2022/06/23 12:44:03;;;;;;;7.20;1.20;;;;;;;43.22;16.40;100103.66;4409257;32;20109;-80